Time;durP1;ratioP1;P1;durP2;ratioP2;P2;SDS_P1;SDS_P2;PMS_P1;PMS_P2;Temp;Humidity;BMP_temperature;BMP_pressure;BME280_temperature;BME280_humidity;BME280_pressure;Samples;Min_cycle;Max_cycle;Signal;HPM_P1;HPM_P2
2021/12/17 00:05:02;;;;;;;36.38;9.68;;;;;;;4.06;91.87;101358.70;1684291;85;27484;-72
2021/12/17 00:07:29;;;;;;;31.23;8.08;;;;;;;4.03;91.64;101351.14;1682380;85;25753;-71
2021/12/17 00:09:58;;;;;;;;;;;;;;;4.03;91.72;101361.05;1685392;85;25729;-70
2021/12/17 00:12:27;;;;;;;23.42;7.75;;;;;;;4.03;91.76;101357.03;1683015;85;26189;-72
2021/12/17 00:14:56;;;;;;;25.75;7.75;;;;;;;4.02;91.78;101358.08;1683330;85;25433;-72
2021/12/17 00:17:28;;;;;;;32.13;6.87;;;;;;;4.02;91.70;101358.08;1682920;85;30188;-72
2021/12/17 00:49:56;;;;;;;22.62;5.87;;;;;;;3.98;91.30;101371.12;1683500;85;25598;-73
2021/12/17 00:52:12;;;;;;;25.92;6.72;;;;;;;3.97;91.42;101370.86;1661924;85;25793;-72
2021/12/17 00:54:42;;;;;;;22.70;6.80;;;;;;;3.97;91.32;101361.48;1683568;85;25562;-72
2021/12/17 00:57:15;;;;;;;;;;;;;;;3.95;91.24;101359.58;1689110;83;27404;-73
2021/12/17 00:59:45;;;;;;;20.00;6.28;;;;;;;3.93;91.21;101363.00;1696113;84;25555;-72
2021/12/17 01:02:17;;;;;;;27.32;6.97;;;;;;;3.90;91.07;101354.94;1696176;84;25415;-73
2021/12/17 01:04:49;;;;;;;28.40;6.17;;;;;;;3.87;91.19;101352.72;1696108;84;25694;-73
2021/12/17 01:07:19;;;;;;;24.92;6.30;;;;;;;3.86;91.29;101343.59;1696336;84;25560;-72
2021/12/17 01:09:46;;;;;;;24.45;7.22;;;;;;;3.84;91.15;101335.80;1696152;84;27453;-73
2021/12/17 01:12:15;;;;;;;27.50;6.50;;;;;;;3.79;91.14;101339.72;1696099;84;25547;-73
2021/12/17 01:14:43;;;;;;;28.15;6.78;;;;;;;3.78;91.15;101347.97;1670544;84;25663;-72
2021/12/17 01:17:12;;;;;;;23.25;6.60;;;;;;;3.74;91.18;101350.31;1696109;84;25615;-72
2021/12/17 01:22:51;;;;;;;27.77;7.60;;;;;;;3.70;91.38;101355.33;1696202;84;27347;-73
2021/12/17 01:25:15;;;;;;;20.52;5.75;;;;;;;3.70;91.53;101359.88;1694087;84;25556;-72
2021/12/17 01:35:44;;;;;;;31.02;6.87;;;;;;;3.72;91.87;101356.44;1696183;84;27266;-74
2021/12/17 01:39:17;;;;;;;28.55;7.47;;;;;;;3.73;91.87;101362.09;1696206;84;25418;-73
2021/12/17 01:43:20;;;;;;;19.62;6.72;;;;;;;3.72;91.93;101368.48;1696143;84;26328;-74
2021/12/17 01:45:47;;;;;;;29.25;7.12;;;;;;;3.73;91.96;101370.12;1696163;84;25419;-72
2021/12/17 01:48:20;;;;;;;19.73;6.60;;;;;;;3.74;91.96;101378.41;1696117;84;27423;-73
2021/12/17 01:56:50;;;;;;;25.25;6.47;;;;;;;3.75;91.90;101366.67;1696105;84;26196;-72
2021/12/17 02:01:46;;;;;;;25.08;6.45;;;;;;;3.77;91.95;101366.44;1672899;84;27365;-72
2021/12/17 02:04:13;;;;;;;30.77;7.30;;;;;;;3.77;91.92;101356.54;1696375;84;25692;-72
2021/12/17 02:06:39;;;;;;;30.35;8.83;;;;;;;3.78;91.94;101342.13;1698346;84;25190;-73
2021/12/17 02:10:05;;;;;;;30.10;7.78;;;;;;;3.79;91.90;101346.41;1697196;84;25750;-72
2021/12/17 02:29:42;;;;;;;24.25;6.83;;;;;;;3.79;91.59;101330.34;1696259;84;27585;-71
2021/12/17 02:32:02;;;;;;;23.35;6.67;;;;;;;3.79;91.63;101313.48;1670519;84;25438;-71
2021/12/17 02:36:58;;;;;;;30.85;7.90;;;;;;;3.78;91.59;101311.34;1696086;84;25621;-72
2021/12/17 02:47:39;;;;;;;28.05;7.47;;;;;;;3.75;91.41;101303.78;1632740;87;25625;-72
2021/12/17 02:50:08;;;;;;;24.40;6.35;;;;;;;3.73;91.41;101309.38;1654098;86;25624;-73
2021/12/17 02:52:37;;;;;;;23.87;6.15;;;;;;;3.72;91.43;101313.09;1654110;86;25480;-72
2021/12/17 02:55:06;;;;;;;;;;;;;;;3.71;91.34;101313.32;1656601;86;27384;-72
2021/12/17 02:57:35;;;;;;;31.48;7.53;;;;;;;3.71;91.41;101311.98;1640391;87;25564;-72
2021/12/17 03:00:08;;;;;;;18.90;6.05;;;;;;;3.70;91.40;101319.74;1638940;87;25658;-73
2021/12/17 03:02:38;;;;;;;26.15;7.83;;;;;;;3.68;91.33;101305.27;1621374;88;25747;-71
2021/12/17 03:05:07;;;;;;;22.23;6.10;;;;;;;3.70;91.39;101310.38;1640949;87;25496;-72
2021/12/17 03:07:38;;;;;;;18.10;5.55;;;;;;;3.69;91.31;101294.83;1607017;89;27918;-72
2021/12/17 03:10:09;;;;;;;18.67;6.28;;;;;;;3.70;91.25;101305.02;1606877;87;25664;-72
2021/12/17 03:12:44;;;;;;;26.57;6.90;;;;;;;3.70;91.24;101303.69;1607024;89;25488;-72
2021/12/17 03:25:50;;;;;;;22.98;6.05;;;;;;;3.71;90.94;101302.62;1713605;83;25469;-72
2021/12/17 03:28:17;;;;;;;17.25;6.22;;;;;;;3.68;90.99;101299.91;1713552;83;25636;-72
2021/12/17 03:30:46;;;;;;;20.50;6.70;;;;;;;3.71;90.85;101298.61;1713575;83;25651;-73
2021/12/17 03:33:13;;;;;;;19.30;7.05;;;;;;;3.71;90.83;101291.91;1713539;83;27345;-73
2021/12/17 03:35:40;;;;;;;20.50;6.33;;;;;;;3.70;90.75;101292.45;1713425;83;25474;-73
2021/12/17 03:38:07;;;;;;;25.40;6.25;;;;;;;3.71;90.82;101302.11;1713490;83;25616;-73
2021/12/17 03:40:34;;;;;;;26.10;7.10;;;;;;;3.72;90.78;101298.91;1713489;83;25670;-72
2021/12/17 03:43:04;;;;;;;25.72;6.90;;;;;;;3.71;90.71;101300.78;1713531;83;25560;-72
2021/12/17 03:45:31;;;;;;;28.10;6.00;;;;;;;3.72;90.64;101299.70;1713597;83;27336;-72
2021/12/17 03:47:57;;;;;;;22.48;6.72;;;;;;;3.71;90.59;101289.23;1713429;83;25403;-72
2021/12/17 03:50:24;;;;;;;20.68;6.00;;;;;;;3.71;90.49;101286.06;1713544;83;25438;-72
2021/12/17 03:52:51;;;;;;;27.98;6.30;;;;;;;3.70;90.33;101277.73;1713474;83;26181;-72
2021/12/17 03:55:17;;;;;;;15.93;6.28;;;;;;;3.69;90.37;101276.63;1713580;83;25477;-72
2021/12/17 03:57:44;;;;;;;28.10;8.18;;;;;;;3.69;90.46;101278.77;1713356;83;27910;-72
2021/12/17 04:00:13;;;;;;;19.25;6.40;;;;;;;3.69;90.51;101276.09;1711088;83;25468;-72
2021/12/17 04:02:39;;;;;;;26.80;7.70;;;;;;;3.69;90.51;101267.27;1687101;83;25498;-71
2021/12/17 04:05:06;;;;;;;25.45;7.35;;;;;;;3.70;90.40;101275.05;1687595;83;25517;-71
2021/12/17 04:07:34;;;;;;;31.30;7.65;;;;;;;3.70;90.39;101266.22;1711815;83;25220;-71
2021/12/17 04:10:01;;;;;;;25.90;7.42;;;;;;;3.67;90.40;101267.50;1711817;83;27330;-72
2021/12/17 04:12:42;;;;;;;20.05;6.35;;;;;;;3.70;90.29;101273.72;1711192;83;25422;-72
2021/12/17 04:14:57;;;;;;;17.50;6.72;;;;;;;3.69;90.16;101284.13;1710223;83;25456;-72
2021/12/17 04:17:26;;;;;;;18.25;6.08;;;;;;;3.68;90.09;101278.50;1710629;83;25674;-72
2021/12/17 04:19:52;;;;;;;21.37;6.87;;;;;;;3.68;90.17;101275.02;1710715;83;25455;-72
2021/12/17 04:22:20;;;;;;;26.07;7.60;;;;;;;3.68;90.11;101272.34;1710712;83;27948;-72
2021/12/17 04:24:46;;;;;;;21.42;7.97;;;;;;;3.67;90.09;101277.40;1710578;83;25655;-72
2021/12/17 04:27:13;;;;;;;23.60;6.67;;;;;;;3.66;90.12;101280.61;1710703;83;25468;-72
2021/12/17 04:29:42;;;;;;;22.75;6.45;;;;;;;3.68;90.16;101287.06;1710656;83;25630;-72
2021/12/17 04:32:08;;;;;;;30.15;6.67;;;;;;;3.68;90.10;101289.73;1710646;83;25583;-72
2021/12/17 04:34:35;;;;;;;23.87;6.72;;;;;;;3.68;90.10;101292.41;1710683;83;27411;-72
2021/12/17 04:37:02;;;;;;;23.10;5.92;;;;;;;3.66;89.98;101288.63;1710585;83;25423;-72
2021/12/17 04:39:29;;;;;;;22.40;6.30;;;;;;;3.66;89.86;101289.97;1710660;83;25579;-72
2021/12/17 04:42:01;;;;;;;22.80;7.37;;;;;;;3.66;89.87;101289.14;1710658;83;25670;-72
2021/12/17 04:44:34;;;;;;;18.55;6.30;;;;;;;3.66;89.72;101282.45;1710503;83;25588;-72
2021/12/17 04:58:01;;;;;;;20.35;6.42;;;;;;;3.63;89.87;101299.00;1710631;83;25495;-72
2021/12/17 05:00:30;;;;;;;18.45;6.45;;;;;;;3.63;89.78;101304.36;1710735;83;27951;-72
2021/12/17 05:02:59;;;;;;;16.80;6.00;;;;;;;3.61;89.74;101301.91;1710829;83;25645;-72
2021/12/17 05:05:31;;;;;;;24.27;7.30;;;;;;;3.61;89.61;101308.60;1710810;83;25756;-72
2021/12/17 05:08:02;;;;;;;19.50;6.10;;;;;;;3.60;89.54;101314.99;1710710;83;25608;-71
2021/12/17 05:10:50;;;;;;;21.57;6.75;;;;;;;3.57;89.44;101309.31;1712021;83;25560;-71
2021/12/17 05:18:31;;;;;;;23.80;7.60;;;;;;;3.54;89.67;101325.30;1710664;83;25613;-70
2021/12/17 05:21:01;;;;;;;20.88;6.83;;;;;;;3.54;89.75;101330.64;1710601;83;26127;-71
2021/12/17 05:23:36;;;;;;;23.77;7.58;;;;;;;3.55;89.72;101326.39;1686528;83;25429;-72
2021/12/17 05:26:06;;;;;;;26.68;7.50;;;;;;;3.56;89.75;101329.91;1710778;83;27406;-72
2021/12/17 05:28:33;;;;;;;23.75;7.90;;;;;;;3.55;89.75;101314.36;1710778;83;25419;-72
2021/12/17 05:31:00;;;;;;;27.77;8.15;;;;;;;3.57;89.82;101321.34;1710785;83;25659;-72
2021/12/17 05:33:27;;;;;;;20.52;7.45;;;;;;;3.55;89.77;101325.59;1710768;83;25701;-72
2021/12/17 05:35:56;;;;;;;26.27;7.62;;;;;;;3.55;89.85;101321.05;1710809;83;25629;-72
2021/12/17 05:38:25;;;;;;;18.52;7.33;;;;;;;3.56;89.90;101323.22;1710840;83;27361;-72
2021/12/17 05:40:53;;;;;;;17.25;7.25;;;;;;;3.57;89.94;101324.83;1710809;83;25424;-72
2021/12/17 05:43:20;;;;;;;25.30;7.62;;;;;;;3.57;89.91;101319.47;1710780;83;25666;-72
2021/12/17 05:48:25;;;;;;;20.80;8.07;;;;;;;3.58;89.77;101318.97;1711080;83;25475;-72
2021/12/17 05:50:53;;;;;;;23.83;9.13;;;;;;;3.55;89.80;101310.88;1710261;83;27981;-70
2021/12/17 05:53:20;;;;;;;31.73;9.55;;;;;;;3.52;89.84;101300.64;1710642;83;25811;-72
2021/12/17 05:55:46;;;;;;;26.45;9.15;;;;;;;3.54;89.86;101311.41;1710660;83;25625;-72
2021/12/17 05:58:13;;;;;;;26.20;8.38;;;;;;;3.54;89.86;101309.23;1710717;83;25609;-72
2021/12/17 06:00:42;;;;;;;26.12;9.63;;;;;;;3.55;89.81;101317.56;1684009;83;25485;-72
2021/12/17 06:03:09;;;;;;;23.05;8.30;;;;;;;3.53;89.82;101319.14;1683569;85;27326;-73
2021/12/17 06:05:36;;;;;;;23.65;7.92;;;;;;;3.52;89.84;101313.52;1661236;86;25694;-72
2021/12/17 06:08:04;;;;;;;26.37;9.08;;;;;;;3.52;89.86;101318.87;1661306;86;25578;-72
2021/12/17 06:10:32;;;;;;;32.75;8.53;;;;;;;3.53;89.88;101322.34;1661237;85;25731;-72
2021/12/17 06:12:59;;;;;;;20.95;7.87;;;;;;;3.53;89.83;101317.00;1661304;86;25711;-72
2021/12/17 06:15:25;;;;;;;21.40;8.85;;;;;;;3.51;89.79;101313.22;1661298;86;27971;-72
2021/12/17 06:17:52;;;;;;;22.37;8.40;;;;;;;3.52;89.79;101318.03;1661156;86;25489;-71
2021/12/17 06:20:22;;;;;;;25.48;8.23;;;;;;;3.51;89.83;101317.77;1661363;86;25609;-71
2021/12/17 06:22:49;;;;;;;23.77;9.48;;;;;;;3.51;89.86;101319.91;1661395;86;25700;-72
2021/12/17 06:25:17;;;;;;;29.15;11.25;;;;;;;3.52;89.86;101322.05;1661316;86;25420;-72
2021/12/17 06:27:44;;;;;;;24.92;8.88;;;;;;;3.51;89.83;101312.41;1638165;86;27216;-72
2021/12/17 06:30:15;;;;;;;25.57;9.08;;;;;;;3.50;89.70;101310.77;1661188;86;25484;-72
2021/12/17 06:32:42;;;;;;;22.45;8.18;;;;;;;3.48;89.59;101305.66;1661331;85;25659;-72
2021/12/17 06:35:10;;;;;;;24.87;8.83;;;;;;;3.45;89.48;101303.98;1661267;86;25672;-72
2021/12/17 06:37:39;;;;;;;24.95;7.97;;;;;;;3.43;89.55;101302.88;1661317;86;25650;-71
2021/12/17 06:40:07;;;;;;;23.35;8.80;;;;;;;3.41;89.52;101304.98;1661403;85;27337;-72
2021/12/17 06:42:34;;;;;;;23.10;8.45;;;;;;;3.40;89.48;101305.22;1661213;86;25521;-72
2021/12/17 06:45:05;;;;;;;23.83;8.85;;;;;;;3.37;89.47;101302.47;1661279;86;25417;-73
2021/12/17 06:47:35;;;;;;;23.95;8.53;;;;;;;3.33;89.50;101301.33;1683140;85;25609;-73
2021/12/17 06:55:56;;;;;;;25.57;8.23;;;;;;;3.30;89.57;101310.66;1653880;86;25457;-72
2021/12/17 07:01:02;;;;;;;30.92;9.45;;;;;;;3.28;89.76;101307.91;1664581;85;25630;-72
2021/12/17 07:05:59;;;;;;;30.55;9.85;;;;;;;3.27;89.82;101312.95;1666268;86;27910;-72
2021/12/17 07:10:57;;;;;;;28.15;9.18;;;;;;;3.26;89.86;101320.17;1605961;89;25651;-72
2021/12/17 07:32:45;;;;;;;23.32;9.20;;;;;;;3.28;89.68;101341.34;1606058;89;27942;-73
2021/12/17 07:40:07;;;;;;;23.77;8.45;;;;;;;3.29;89.63;101359.83;1606040;89;25704;-73
2021/12/17 07:42:34;;;;;;;24.15;8.45;;;;;;;3.29;89.60;101365.17;1606055;89;25416;-72
2021/12/17 07:45:02;;;;;;;18.75;8.60;;;;;;;3.30;89.61;101366.81;1605991;89;27898;-72
2021/12/17 07:47:28;;;;;;;20.32;8.23;;;;;;;3.32;89.63;101359.87;1617589;84;25573;-72
2021/12/17 07:49:55;;;;;;;20.88;8.75;;;;;;;3.33;89.61;101361.50;1694377;84;25599;-72
2021/12/17 07:52:22;;;;;;;27.85;10.05;;;;;;;3.34;89.59;101365.81;1694340;84;25612;-72
2021/12/17 07:54:48;;;;;;;22.75;9.90;;;;;;;3.33;89.52;101358.83;1694431;84;25492;-72
2021/12/17 07:57:15;;;;;;;29.05;9.78;;;;;;;3.36;89.62;101358.37;1694318;84;27912;-72
2021/12/17 07:59:42;;;;;;;26.73;8.85;;;;;;;3.38;89.68;101364.83;1694978;84;25455;-72
2021/12/17 08:02:09;;;;;;;20.68;8.48;;;;;;;3.39;89.67;101373.95;1696347;84;25600;-73
2021/12/17 08:04:36;;;;;;;25.92;9.30;;;;;;;3.41;89.50;101373.72;1688924;84;26139;-72
2021/12/17 08:07:03;;;;;;;21.10;8.45;;;;;;;3.40;89.29;101374.76;1696395;84;25417;-72
2021/12/17 08:09:30;;;;;;;25.52;8.25;;;;;;;3.39;89.36;101377.97;1694530;84;27284;-72
2021/12/17 08:11:57;;;;;;;17.67;7.40;;;;;;;3.40;89.23;101389.47;1688667;85;25223;-73
2021/12/17 08:14:27;;;;;;;26.55;7.42;;;;;;;3.37;89.13;101382.71;1711274;83;25624;-73
2021/12/17 08:25:11;;;;;;;21.95;7.05;;;;;;;3.38;88.99;101394.24;1710676;83;25555;-72
2021/12/17 08:27:44;;;;;;;24.10;8.40;;;;;;;3.36;89.10;101391.27;1710605;83;25617;-73
2021/12/17 08:32:43;;;;;;;15.10;6.67;;;;;;;3.38;89.10;101409.76;1710751;83;25463;-73
2021/12/17 08:35:11;;;;;;;22.90;7.78;;;;;;;3.38;89.10;101408.42;1710806;83;27336;-72
2021/12/17 08:37:38;;;;;;;27.98;8.48;;;;;;;3.39;89.12;101406.55;1686487;83;25672;-73
2021/12/17 08:40:08;;;;;;;17.12;7.03;;;;;;;3.39;88.95;101402.54;1710715;83;25675;-72
2021/12/17 08:42:35;;;;;;;;;;;;;;;3.38;88.80;101405.75;1713212;83;25613;-72
2021/12/17 08:45:09;;;;;;;18.17;6.12;;;;;;;3.38;88.83;101403.08;1710743;83;25449;-72
2021/12/17 08:47:36;;;;;;;15.90;6.78;;;;;;;3.38;88.96;101392.91;1687301;83;27876;-71
2021/12/17 08:50:07;;;;;;;20.45;6.92;;;;;;;3.39;88.87;101393.18;1710628;83;25396;-73
2021/12/17 08:52:34;;;;;;;21.85;7.60;;;;;;;3.40;88.96;101386.80;1710734;83;25612;-73
2021/12/17 08:55:01;;;;;;;13.90;6.10;;;;;;;3.42;89.04;101380.14;1710623;83;25687;-71
2021/12/17 08:57:28;;;;;;;18.10;6.80;;;;;;;3.44;88.87;101379.41;1710272;83;25620;-72
2021/12/17 08:59:57;;;;;;;20.70;6.87;;;;;;;3.45;88.83;101379.69;1703222;83;28041;-71
2021/12/17 09:02:23;;;;;;;18.15;6.80;;;;;;;3.47;88.86;101364.20;1683486;85;25597;-69
2021/12/17 09:04:50;;;;;;;18.32;6.65;;;;;;;3.50;88.97;101357.05;1661340;86;25568;-71
2021/12/17 09:07:17;;;;;;;14.90;6.95;;;;;;;3.54;88.93;101356.89;1661301;86;25629;-72
2021/12/17 09:09:46;;;;;;;21.93;8.00;;;;;;;3.58;88.93;101343.86;1661382;86;25394;-72
2021/12/17 09:12:12;;;;;;;17.48;6.90;;;;;;;3.62;88.85;101345.00;1683411;85;27446;-71
2021/12/17 09:14:39;;;;;;;17.67;7.30;;;;;;;3.65;88.86;101343.19;1683470;85;25621;-71
2021/12/17 09:17:06;;;;;;;16.73;6.70;;;;;;;3.68;88.80;101349.95;1661350;86;25638;-72
2021/12/17 09:19:33;;;;;;;15.55;6.70;;;;;;;3.70;88.83;101357.20;1661259;86;25681;-71
2021/12/17 09:22:01;;;;;;;18.05;7.50;;;;;;;3.74;88.74;101352.45;1661357;86;25495;-71
2021/12/17 09:24:28;;;;;;;24.92;8.08;;;;;;;3.77;88.56;101351.72;1661373;85;27330;-72
2021/12/17 09:26:55;;;;;;;18.12;7.33;;;;;;;3.78;88.68;101363.53;1638271;86;25655;-71
2021/12/17 09:29:22;;;;;;;25.97;7.78;;;;;;;3.80;88.40;101361.42;1661426;86;25470;-71
2021/12/17 09:31:49;;;;;;;20.90;8.03;;;;;;;3.80;88.22;101361.92;1661287;86;25628;-70
2021/12/17 09:34:15;;;;;;;22.37;7.60;;;;;;;3.79;88.12;101366.47;1661382;85;25636;-72
2021/12/17 09:36:42;;;;;;;27.62;7.87;;;;;;;3.78;88.08;101354.16;1661351;86;27972;-72
2021/12/17 09:39:09;;;;;;;19.20;8.45;;;;;;;3.77;88.18;101362.42;1661229;86;25618;-72
2021/12/17 09:41:38;;;;;;;19.00;7.12;;;;;;;3.79;88.35;101367.81;1661381;86;25443;-73
2021/12/17 09:44:05;;;;;;;19.90;8.25;;;;;;;3.80;88.41;101370.80;1668348;83;25659;-71
2021/12/17 09:46:32;;;;;;;20.30;8.20;;;;;;;3.85;88.50;101362.06;1689234;85;25474;-72
2021/12/17 09:48:59;;;;;;;18.07;8.00;;;;;;;3.88;88.52;101365.07;1665440;85;27391;-73
2021/12/17 09:51:27;;;;;;;21.35;8.73;;;;;;;3.91;88.41;101351.19;1689079;85;25703;-70
2021/12/17 09:53:53;;;;;;;20.23;8.00;;;;;;;3.95;88.37;101352.05;1665730;85;25661;-71
2021/12/17 09:56:20;;;;;;;22.25;9.68;;;;;;;3.98;88.40;101363.09;1689149;85;26178;-71
2021/12/17 09:58:49;;;;;;;19.10;8.40;;;;;;;4.01;88.30;101365.83;1689273;85;25575;-71
2021/12/17 10:01:17;;;;;;;25.55;10.20;;;;;;;4.03;88.21;101365.87;1694490;84;29798;-72
2021/12/17 10:03:44;;;;;;;22.82;8.85;;;;;;;4.04;88.06;101361.34;1740293;82;25639;-71
2021/12/17 10:06:23;;;;;;;24.85;9.48;;;;;;;4.06;87.99;101360.04;1740358;82;25579;-73
2021/12/17 10:08:49;;;;;;;24.72;9.03;;;;;;;4.10;88.02;101348.33;1740459;82;25615;-73
2021/12/17 10:11:18;;;;;;;19.40;8.53;;;;;;;4.14;87.80;101358.02;1740390;82;25616;-72
2021/12/17 10:13:47;;;;;;;20.02;9.08;;;;;;;4.17;88.13;101353.54;1740514;82;27320;-71
2021/12/17 10:16:19;;;;;;;25.12;9.53;;;;;;;4.23;88.26;101352.05;1740322;82;25570;-73
2021/12/17 10:18:48;;;;;;;26.17;9.80;;;;;;;4.31;88.07;101354.88;1717516;82;25477;-72
2021/12/17 10:21:28;;;;;;;20.40;9.78;;;;;;;4.34;87.80;101351.70;1710906;83;25626;-72
2021/12/17 10:23:57;;;;;;;;;;;;;;;4.40;87.88;101344.58;1704812;84;25792;-72
2021/12/17 10:26:26;;;;;;;23.52;9.60;;;;;;;4.48;87.79;101345.53;1702420;84;27998;-72
2021/12/17 10:29:08;;;;;;;21.75;9.28;;;;;;;4.56;87.85;101343.77;1702373;84;25511;-73
2021/12/17 10:31:36;;;;;;;19.00;8.55;;;;;;;4.62;87.60;101342.80;1702108;82;25454;-73
2021/12/17 10:34:05;;;;;;;21.93;9.08;;;;;;;4.64;86.86;101341.23;1702241;84;26143;-72
2021/12/17 10:36:43;;;;;;;26.80;10.23;;;;;;;4.64;86.90;101345.25;1702347;84;25667;-73
2021/12/17 10:39:24;;;;;;;22.60;9.90;;;;;;;4.68;87.08;101333.80;1702191;84;27334;-74
2021/12/17 10:41:52;;;;;;;25.15;9.58;;;;;;;4.71;86.49;101341.87;1674405;84;25592;-75
2021/12/17 10:44:21;;;;;;;20.45;9.98;;;;;;;4.67;86.34;101340.21;1702244;84;25485;-74
2021/12/17 10:47:14;;;;;;;27.87;9.70;;;;;;;4.65;86.11;101341.52;1702334;84;30524;-73
2021/12/17 10:49:58;;;;;;;25.57;10.20;;;;;;;4.61;86.12;101345.19;1711949;83;25690;-72
2021/12/17 10:52:34;;;;;;;23.38;9.65;;;;;;;4.55;86.05;101336.80;1672611;84;27549;-74
2021/12/17 10:55:16;;;;;;;24.32;9.48;;;;;;;4.53;86.19;101339.42;1695893;83;25471;-74
2021/12/17 10:57:44;;;;;;;24.15;9.93;;;;;;;4.57;86.19;101329.86;1689081;85;25654;-72
2021/12/17 11:00:12;;;;;;;20.57;10.48;;;;;;;4.57;86.39;101332.55;1672290;84;25637;-73
2021/12/17 11:02:51;;;;;;;19.77;9.90;;;;;;;4.60;86.35;101332.06;1667613;86;25628;-73
2021/12/17 11:05:18;;;;;;;24.37;10.03;;;;;;;4.64;86.33;101337.20;1683174;85;27341;-74
2021/12/17 11:07:48;;;;;;;22.32;10.08;;;;;;;4.67;86.33;101334.05;1644955;86;25682;-73
2021/12/17 11:10:17;;;;;;;19.45;9.13;;;;;;;4.68;86.09;101328.95;1667580;84;25647;-73
2021/12/17 11:12:46;;;;;;;21.05;9.05;;;;;;;4.83;86.30;101339.11;1660069;85;25458;-73
2021/12/17 11:15:24;;;;;;;19.60;9.13;;;;;;;4.83;86.30;101339.11;1671719;84;25564;-72
2021/12/17 11:17:55;;;;;;;17.37;7.83;;;;;;;4.77;86.12;101320.80;1712334;83;27286;-73
2021/12/17 11:20:29;;;;;;;19.60;8.70;;;;;;;4.88;86.30;101320.95;1712358;83;25600;-72
2021/12/17 11:23:03;;;;;;;23.80;9.28;;;;;;;4.90;85.89;101312.13;1708713;83;25440;-75
2021/12/17 11:25:26;;;;;;;21.35;9.00;;;;;;;4.95;85.82;101321.59;1711522;82;25617;-73
2021/12/17 11:27:53;;;;;;;13.48;7.60;;;;;;;5.03;85.96;101317.16;1712478;82;25435;-73
2021/12/17 11:30:24;;;;;;;17.73;8.75;;;;;;;5.13;85.23;101320.52;1712763;83;27488;-73
2021/12/17 11:32:53;;;;;;;20.70;9.20;;;;;;;5.10;84.86;101319.66;1712348;83;25536;-74
2021/12/17 11:35:25;;;;;;;18.50;9.00;;;;;;;5.07;85.19;101320.95;1712496;83;25690;-74
2021/12/17 11:37:57;;;;;;;21.65;9.43;;;;;;;5.08;85.05;101317.77;1713142;83;26125;-73
2021/12/17 11:40:34;;;;;;;18.57;7.62;;;;;;;5.05;84.79;101312.35;1713668;83;25229;-74
2021/12/17 11:43:29;;;;;;;18.32;8.28;;;;;;;5.01;84.52;101311.23;1705383;82;27357;-74
2021/12/17 11:46:04;;;;;;;22.13;9.08;;;;;;;5.01;84.85;101309.89;1712409;83;25587;-74
2021/12/17 11:48:34;;;;;;;23.38;9.18;;;;;;;5.01;84.57;101303.19;1710933;82;25573;-73
2021/12/17 11:51:12;;;;;;;22.62;9.85;;;;;;;5.02;84.18;101304.80;1712363;83;25675;-73
2021/12/17 11:53:58;;;;;;;22.82;8.68;;;;;;;5.04;84.34;101300.02;1712338;83;25574;-74
2021/12/17 11:56:54;;;;;;;17.98;8.40;;;;;;;5.03;84.41;101309.11;1712416;83;27048;-75
2021/12/17 11:59:31;;;;;;;26.75;9.20;;;;;;;5.04;84.24;101309.41;1712543;83;25472;-73
2021/12/17 12:02:14;;;;;;;17.12;7.72;;;;;;;5.02;84.29;101308.81;1712276;83;25399;-74
2021/12/17 12:04:54;;;;;;;18.75;7.62;;;;;;;5.01;84.25;101320.63;1710434;82;25573;-73
2021/12/17 12:07:28;;;;;;;16.93;7.72;;;;;;;4.99;83.97;101304.77;1712265;83;25579;-73
2021/12/17 12:10:19;;;;;;;20.37;8.53;;;;;;;4.99;84.21;101297.27;1712325;83;28007;-72
2021/12/17 12:12:52;;;;;;;25.93;8.50;;;;;;;4.97;84.18;101304.72;1711886;83;25827;-73
2021/12/17 12:15:31;;;;;;;13.85;7.00;;;;;;;4.96;84.03;101301.78;1711821;83;25229;-73
2021/12/17 12:18:18;;;;;;;13.45;7.40;;;;;;;4.92;84.08;101297.44;1711148;83;25622;-73
2021/12/17 12:20:53;;;;;;;18.00;7.80;;;;;;;4.88;83.92;101296.29;1712040;83;25393;-73
2021/12/17 12:23:32;;;;;;;20.32;7.55;;;;;;;4.85;84.15;101299.45;1712099;82;27751;-73
2021/12/17 12:26:14;;;;;;;18.17;8.03;;;;;;;4.81;84.00;101297.80;1711783;83;25607;-74
2021/12/17 12:29:03;;;;;;;20.90;7.67;;;;;;;4.77;83.87;101291.86;1711552;83;25600;-75
2021/12/17 12:31:38;;;;;;;13.25;7.65;;;;;;;4.72;84.11;101291.24;1711375;82;26294;-71
2021/12/17 12:34:15;;;;;;;17.55;7.45;;;;;;;4.68;84.25;101278.86;1712032;83;25668;-74
2021/12/17 12:37:04;;;;;;;18.67;6.85;;;;;;;4.65;84.39;101277.20;1712161;83;27281;-74
2021/12/17 12:39:55;;;;;;;19.70;7.22;;;;;;;4.65;84.51;101285.24;1712044;83;25610;-73
2021/12/17 12:42:38;;;;;;;18.37;7.47;;;;;;;4.65;84.58;101284.70;1711821;82;25295;-72
2021/12/17 12:45:10;;;;;;;23.52;6.70;;;;;;;4.61;84.45;101286.23;1712030;83;25631;-70
2021/12/17 12:47:44;;;;;;;17.85;7.00;;;;;;;4.60;84.52;101287.84;1711974;83;25641;-70
2021/12/17 12:50:20;;;;;;;17.45;7.75;;;;;;;4.62;84.95;101300.47;1714683;83;27325;-78
2021/12/17 12:52:54;;;;;;;17.23;6.70;;;;;;;4.63;85.21;101301.56;1715413;83;25721;-77
2021/12/17 12:55:39;;;;;;;16.02;6.50;;;;;;;4.67;85.33;101301.34;1714813;83;25775;-79
2021/12/17 12:58:14;;;;;;;17.10;7.53;;;;;;;4.65;84.84;101302.13;1706678;82;25944;-78
2021/12/17 13:00:51;;;;;;;14.33;6.60;;;;;;;4.61;84.65;101301.52;1714529;82;25289;-77
2021/12/17 13:03:29;;;;;;;17.62;7.15;;;;;;;4.55;84.47;101300.63;1715511;83;27068;-77
2021/12/17 13:05:56;;;;;;;21.42;7.37;;;;;;;4.47;84.61;101307.19;1675449;83;25870;-78
2021/12/17 13:08:25;;;;;;;25.12;7.97;;;;;;;4.44;84.71;101301.51;1671525;85;25703;-78
2021/12/17 13:11:18;;;;;;;19.67;7.65;;;;;;;4.38;84.76;101311.34;1671737;84;26511;-77
2021/12/17 13:13:51;;;;;;;18.20;7.97;;;;;;;4.35;84.73;101303.78;1582705;89;25716;-78
2021/12/17 13:16:22;;;;;;;18.07;7.25;;;;;;;4.30;84.94;101301.02;1581780;89;28113;-78
2021/12/17 13:21:46;;;;;;;19.00;8.28;;;;;;;4.20;85.04;101309.68;1582946;90;25724;-77
2021/12/17 13:24:23;;;;;;;19.90;9.03;;;;;;;4.17;85.14;101312.03;1582391;89;25770;-78
2021/12/17 13:26:57;;;;;;;19.50;8.75;;;;;;;4.14;85.07;101312.00;1582864;90;25472;-79
2021/12/17 13:29:34;;;;;;;20.52;7.85;;;;;;;4.10;85.16;101324.22;1583590;90;27407;-78
2021/12/17 13:32:06;;;;;;;24.32;8.10;;;;;;;4.05;85.27;101323.62;1582522;90;25745;-78
2021/12/17 13:34:45;;;;;;;19.85;9.58;;;;;;;4.01;85.28;101327.02;1582904;90;25718;-78
2021/12/17 13:37:19;;;;;;;13.98;7.80;;;;;;;3.97;85.41;101319.99;1558807;90;30211;-79
2021/12/17 13:39:58;;;;;;;19.27;9.38;;;;;;;3.94;85.49;101319.13;1582660;90;25569;-79
2021/12/17 13:42:36;;;;;;;19.23;9.25;;;;;;;3.91;85.62;101324.95;1563202;90;27478;-79
2021/12/17 13:45:08;;;;;;;21.90;9.80;;;;;;;3.89;85.70;101333.22;1599315;89;25871;-79
2021/12/17 13:47:47;;;;;;;16.75;8.03;;;;;;;3.86;85.90;101322.98;1587839;88;25530;-79
2021/12/17 13:50:31;;;;;;;20.55;8.25;;;;;;;3.85;85.96;101320.57;1600801;88;25918;-78
2021/12/17 13:53:13;;;;;;;17.17;8.03;;;;;;;3.85;86.04;101325.39;1621537;88;25464;-78
2021/12/17 13:55:47;;;;;;;24.52;9.20;;;;;;;3.83;86.01;101328.00;1621787;88;27312;-78
2021/12/17 13:58:20;;;;;;;19.55;8.38;;;;;;;3.81;86.10;101314.05;1610507;88;25780;-79
2021/12/17 14:00:54;;;;;;;16.60;9.05;;;;;;;3.80;86.11;101315.09;1621769;88;25623;-79
2021/12/17 14:03:28;;;;;;;18.48;9.13;;;;;;;3.77;86.14;101307.56;1597891;88;25704;-79
2021/12/17 14:06:18;;;;;;;19.85;8.48;;;;;;;3.76;86.24;101305.92;1628237;87;25714;-78
2021/12/17 14:08:41;;;;;;;18.67;8.30;;;;;;;3.77;86.38;101311.58;1626184;86;27546;-79
2021/12/17 14:11:34;;;;;;;20.88;7.80;;;;;;;3.74;86.33;101313.66;1628424;88;25251;-78
2021/12/17 14:13:55;;;;;;;22.62;7.83;;;;;;;3.76;86.34;101316.09;1619302;87;25572;-77
2021/12/17 14:16:33;;;;;;;21.15;8.83;;;;;;;3.76;86.47;101319.30;1622053;88;25654;-77
2021/12/17 14:19:03;;;;;;;19.45;7.65;;;;;;;3.74;86.37;101323.55;1620819;88;25697;-79
2021/12/17 14:21:35;;;;;;;16.73;7.87;;;;;;;3.73;86.38;101330.78;1620917;87;27571;-76
2021/12/17 14:24:02;;;;;;;25.35;7.58;;;;;;;3.72;86.33;101319.78;1620496;88;25960;-78
2021/12/17 14:26:31;;;;;;;17.67;8.00;;;;;;;3.71;86.50;101328.87;1620854;88;25619;-78
2021/12/17 14:29:12;;;;;;;18.12;6.85;;;;;;;3.70;86.54;101328.58;1621669;88;25635;-80